Time;durP1;ratioP1;P1;durP2;ratioP2;P2;SDS_P1;SDS_P2;PMS_P1;PMS_P2;Temp;Humidity;BMP_temperature;BMP_pressure;BME280_temperature;BME280_humidity;BME280_pressure;Samples;Min_cycle;Max_cycle;Signal;HPM_P1;HPM_P2
2022/08/06 00:00:09;;;;;;;1.25;1.00;;;;;;;23.71;42.46;100074.56;342784;28;1375;-71
2022/08/06 00:00:21;;;;;;;1.40;1.05;;;;;;;23.72;42.48;100076.22;342568;28;1106;-71
2022/08/06 00:00:38;;;;;;;1.73;1.10;;;;;;;23.70;42.67;100078.16;342823;28;1024;-72
2022/08/06 00:00:55;;;;;;;1.70;1.08;;;;;;;23.73;42.24;100072.63;343662;28;1607;-72
2022/08/06 00:01:09;;;;;;;1.50;1.00;;;;;;;23.73;42.17;100076.13;343862;28;1202;-71
2022/08/06 00:01:22;;;;;;;1.65;1.08;;;;;;;23.75;41.87;100076.00;343554;28;1376;-71
2022/08/06 00:01:34;;;;;;;1.90;1.10;;;;;;;23.71;42.25;100075.41;342935;28;1269;-71
2022/08/06 00:01:47;;;;;;;1.52;1.15;;;;;;;23.74;42.47;100074.31;343491;28;1047;-71
2022/08/06 00:02:01;;;;;;;2.15;1.15;;;;;;;23.75;42.10;100070.69;343562;28;1367;-71
2022/08/06 00:02:13;;;;;;;2.58;1.23;;;;;;;23.76;42.05;100075.03;342425;28;2134;-71
2022/08/06 00:02:34;;;;;;;2.08;1.20;;;;;;;23.77;42.60;100079.41;342244;28;1096;-72
2022/08/06 00:02:46;;;;;;;1.52;0.93;;;;;;;23.66;42.12;100068.78;341073;28;1907;-71
2022/08/06 00:02:59;;;;;;;0.95;0.90;;;;;;;23.65;41.97;100075.06;341890;28;1668;-71
2022/08/06 00:03:11;;;;;;;1.48;1.00;;;;;;;23.59;41.95;100078.22;341771;28;1426;-71
2022/08/06 00:03:24;;;;;;;2.85;1.20;;;;;;;23.60;42.19;100077.22;342153;28;1279;-71
2022/08/06 00:03:37;;;;;;;3.10;1.10;;;;;;;23.63;42.45;100077.00;342239;28;1099;-70
2022/08/06 00:03:50;;;;;;;2.35;1.00;;;;;;;23.62;42.46;100081.44;342218;28;1007;-71
2022/08/06 00:04:02;;;;;;;1.20;0.93;;;;;;;23.60;42.94;100075.41;343209;28;1350;-71
2022/08/06 00:04:14;;;;;;;1.60;1.00;;;;;;;23.62;42.26;100077.94;343824;28;1898;-71
2022/08/06 00:04:27;;;;;;;1.75;1.00;;;;;;;23.63;41.94;100074.34;343288;28;1709;-71
2022/08/06 00:04:40;;;;;;;1.50;1.00;;;;;;;23.64;42.48;100074.22;343614;28;1197;-71
2022/08/06 00:04:54;;;;;;;0.98;0.95;;;;;;;23.65;42.85;100075.06;342758;28;1755;-70
2022/08/06 00:05:06;;;;;;;1.45;1.08;;;;;;;23.59;42.74;100075.56;342071;28;2406;-70
2022/08/06 00:05:18;;;;;;;2.10;1.10;;;;;;;23.59;42.38;100080.88;343566;28;1087;-70
2022/08/06 00:05:41;;;;;;;1.92;1.10;;;;;;;23.62;42.30;100075.28;343896;28;853;-70
2022/08/06 00:05:57;;;;;;;1.40;1.13;;;;;;;23.63;42.54;100082.31;343655;28;1310;-70
2022/08/06 00:06:10;;;;;;;1.88;1.27;;;;;;;23.61;42.26;100079.75;342845;28;1028;-70
2022/08/06 00:06:23;;;;;;;1.63;1.20;;;;;;;23.64;42.78;100078.66;343007;28;1477;-70
2022/08/06 00:06:41;;;;;;;2.38;1.08;;;;;;;23.61;42.19;100073.63;343415;28;1166;-70
2022/08/06 00:06:53;;;;;;;2.17;1.00;;;;;;;23.51;41.80;100074.34;342884;28;1318;-70
2022/08/06 00:07:05;;;;;;;2.22;0.95;;;;;;;23.47;42.15;100083.53;344108;28;1129;-70
2022/08/06 00:07:20;;;;;;;1.17;1.05;;;;;;;23.45;41.91;100080.16;344225;28;820;-70
2022/08/06 00:07:37;;;;;;;1.80;1.10;;;;;;;23.49;41.96;100078.94;343066;28;3139;-71
2022/08/06 00:07:58;;;;;;;1.73;1.10;;;;;;;23.53;41.92;100077.72;342996;28;1642;-70
2022/08/06 00:08:13;;;;;;;2.03;1.15;;;;;;;23.57;41.78;100075.66;342250;28;2171;-70
2022/08/06 00:08:29;;;;;;;2.10;1.00;;;;;;;23.40;41.93;100077.03;342370;28;1059;-70
2022/08/06 00:08:41;;;;;;;1.77;0.90;;;;;;;23.36;41.89;100086.16;342283;28;1143;-70
2022/08/06 00:08:58;;;;;;;1.10;1.00;;;;;;;23.38;42.10;100078.09;342693;28;1372;-70
2022/08/06 00:09:11;;;;;;;1.48;1.02;;;;;;;23.35;41.71;100079.19;343715;28;1015;-71
2022/08/06 00:09:30;;;;;;;1.50;0.90;;;;;;;23.41;41.96;100077.88;343860;28;1463;-70
2022/08/06 00:10:03;;;;;;;2.00;1.20;;;;;;;23.44;41.90;100081.13;343189;28;1801;-70
2022/08/06 00:10:18;;;;;;;2.00;1.10;;;;;;;23.41;41.57;100084.00;343615;28;1087;-71
2022/08/06 00:10:40;;;;;;;1.20;0.90;;;;;;;23.42;41.78;100080.41;343696;28;1019;-70
2022/08/06 00:10:57;;;;;;;1.38;1.00;;;;;;;23.47;42.26;100078.22;343505;28;1390;-70
2022/08/06 00:11:09;;;;;;;2.45;1.05;;;;;;;23.49;41.75;100083.41;343773;28;1264;-70
2022/08/06 00:11:22;;;;;;;2.10;0.90;;;;;;;23.51;42.33;100082.31;343695;28;1053;-70
2022/08/06 00:11:34;;;;;;;1.45;0.90;;;;;;;23.51;42.29;100082.31;343261;28;1315;-70
2022/08/06 00:12:03;;;;;;;1.95;1.10;;;;;;;23.51;41.64;100087.63;343736;28;1384;-70
2022/08/06 00:12:21;;;;;;;2.28;1.17;;;;;;;23.50;41.66;100085.94;343463;28;1065;-70
2022/08/06 00:12:41;;;;;;;3.20;1.15;;;;;;;23.52;41.71;100081.34;343546;28;972;-69
2022/08/06 00:12:58;;;;;;;2.80;1.10;;;;;;;23.53;41.50;100071.56;344781;28;1271;-70
2022/08/06 00:13:11;;;;;;;2.47;1.00;;;;;;;23.50;41.35;100083.28;344760;28;1083;-70
2022/08/06 00:13:26;;;;;;;2.22;1.00;;;;;;;23.50;41.71;100087.72;345293;28;1709;-70
2022/08/06 00:13:38;;;;;;;1.88;1.00;;;;;;;23.49;41.51;100091.38;344923;28;1058;-70
2022/08/06 00:13:52;;;;;;;2.22;1.10;;;;;;;23.46;42.39;100092.47;342843;28;1087;-71
2022/08/06 00:14:09;;;;;;;1.58;1.08;;;;;;;23.43;41.39;100092.69;342487;28;1182;-70
2022/08/06 00:14:29;;;;;;;2.83;1.00;;;;;;;23.36;41.83;100088.81;342409;28;1251;-70
2022/08/06 00:14:44;;;;;;;3.15;1.00;;;;;;;23.38;42.15;100086.91;342046;28;1677;-70
2022/08/06 00:14:57;;;;;;;1.30;1.00;;;;;;;23.38;41.77;100094.88;343590;28;1532;-70
2022/08/06 00:15:10;;;;;;;1.33;1.00;;;;;;;23.31;41.19;100091.00;343477;28;1084;-70
2022/08/06 00:15:24;;;;;;;1.48;1.00;;;;;;;23.22;41.55;100084.63;343705;28;1062;-69
2022/08/06 00:15:56;;;;;;;2.20;1.20;;;;;;;23.30;42.19;100089.31;343151;28;1385;-70
2022/08/06 00:16:28;;;;;;;2.40;0.90;;;;;;;23.32;41.82;100092.69;343512;28;1481;-69
2022/08/06 00:16:42;;;;;;;3.28;0.90;;;;;;;23.27;41.86;100093.06;342704;28;1872;-70
2022/08/06 00:17:08;;;;;;;2.42;1.10;;;;;;;23.29;41.22;100090.28;342486;28;1059;-70
2022/08/06 00:17:58;;;;;;;1.90;1.10;;;;;;;23.22;41.97;100091.72;341864;28;1828;-70
2022/08/06 00:18:11;;;;;;;1.40;1.00;;;;;;;23.15;42.16;100088.72;343536;28;1656;-71
2022/08/06 00:18:23;;;;;;;1.20;1.00;;;;;;;23.15;42.24;100094.03;342366;28;2143;-69
2022/08/06 00:18:35;;;;;;;1.37;1.00;;;;;;;23.18;42.26;100087.63;343777;28;1742;-70
2022/08/06 00:18:48;;;;;;;2.10;0.90;;;;;;;23.22;42.46;100094.38;343287;28;1261;-70
2022/08/06 00:19:00;;;;;;;2.03;0.95;;;;;;;23.28;42.24;100088.59;343539;28;1293;-70
2022/08/06 00:19:14;;;;;;;1.27;1.00;;;;;;;23.31;42.20;100088.34;343412;28;1666;-70
2022/08/06 00:19:29;;;;;;;1.50;0.98;;;;;;;23.33;42.26;100091.72;343371;28;1607;-70
2022/08/06 00:20:01;;;;;;;1.40;1.00;;;;;;;23.37;42.10;100090.53;342589;28;1718;-70
2022/08/06 00:20:15;;;;;;;2.03;1.05;;;;;;;23.32;42.05;100095.34;343148;28;1790;-70
2022/08/06 00:20:37;;;;;;;2.38;1.00;;;;;;;23.31;42.05;100091.00;342840;28;1783;-70
2022/08/06 00:20:53;;;;;;;2.55;1.10;;;;;;;23.29;41.68;100100.91;342518;28;1070;-70
2022/08/06 00:21:07;;;;;;;1.90;0.98;;;;;;;23.29;42.15;100090.28;342541;28;1181;-70
2022/08/06 00:21:38;;;;;;;1.05;0.95;;;;;;;23.29;41.29;100095.59;342065;28;1962;-70
2022/08/06 00:21:53;;;;;;;1.63;0.98;;;;;;;23.27;42.34;100092.22;343695;28;1082;-70
2022/08/06 00:22:06;;;;;;;1.80;1.05;;;;;;;23.28;42.05;100102.72;342432;28;2099;-70
2022/08/06 00:22:18;;;;;;;1.42;1.00;;;;;;;23.34;41.92;100098.72;343046;28;1579;-70
2022/08/06 00:22:40;;;;;;;2.05;1.00;;;;;;;23.29;41.69;100090.28;342865;28;1228;-70
2022/08/06 00:22:52;;;;;;;2.08;1.10;;;;;;;23.21;41.54;100093.53;343971;28;1039;-70
2022/08/06 00:23:04;;;;;;;2.53;1.15;;;;;;;23.20;41.71;100098.97;343912;28;1371;-70
2022/08/06 00:23:30;;;;;;;1.80;1.00;;;;;;;23.08;42.03;100098.97;343281;28;1399;-70
2022/08/06 00:24:02;;;;;;;2.25;1.00;;;;;;;23.16;42.40;100097.50;342152;28;1748;-70
2022/08/06 00:24:14;;;;;;;2.45;1.10;;;;;;;23.15;41.91;100094.03;342552;28;1764;-70
2022/08/06 00:24:39;;;;;;;1.67;1.00;;;;;;;23.18;41.99;100092.94;342908;28;999;-70
2022/08/06 00:24:51;;;;;;;2.30;1.00;;;;;;;23.15;42.30;100095.84;342916;28;1615;-70
2022/08/06 00:25:04;;;;;;;1.95;1.00;;;;;;;23.18;41.92;100092.94;342550;28;1351;-70
2022/08/06 00:25:17;;;;;;;1.70;1.10;;;;;;;23.20;41.88;100102.47;342461;28;1725;-70
2022/08/06 00:25:31;;;;;;;2.00;1.20;;;;;;;23.12;42.38;100094.28;343008;28;1589;-70
2022/08/06 00:25:46;;;;;;;3.33;1.17;;;;;;;22.96;42.46;100097.25;343880;28;1097;-70
2022/08/06 00:26:04;;;;;;;3.13;1.10;;;;;;;23.00;42.37;100097.81;344070;28;1310;-70
2022/08/06 00:26:16;;;;;;;1.90;0.90;;;;;;;23.05;42.43;100096.53;342502;28;1721;-70
2022/08/06 00:26:28;;;;;;;2.10;1.00;;;;;;;23.12;42.84;100100.41;343452;28;1803;-70
2022/08/06 00:26:41;;;;;;;1.85;1.00;;;;;;;23.18;42.63;100100.88;343533;28;1224;-70
2022/08/06 00:27:02;;;;;;;2.20;1.00;;;;;;;23.19;42.60;100100.78;342150;28;1334;-70
2022/08/06 00:27:23;;;;;;;2.92;1.08;;;;;;;23.21;42.36;100098.00;342271;28;1792;-70
2022/08/06 00:27:41;;;;;;;3.03;1.20;;;;;;;23.20;42.03;100098.97;343479;28;1079;-70
2022/08/06 00:28:02;;;;;;;1.70;1.10;;;;;;;23.18;42.18;100087.63;342947;28;1443;-70
2022/08/06 00:28:22;;;;;;;1.48;1.02;;;;;;;23.12;42.09;100097.75;343136;28;1302;-70
2022/08/06 00:28:42;;;;;;;1.63;1.00;;;;;;;23.15;42.57;100101.13;342930;28;1534;-70
2022/08/06 00:28:56;;;;;;;2.22;1.10;;;;;;;23.17;42.19;100097.41;342205;28;1320;-70
2022/08/06 00:29:08;;;;;;;2.40;1.20;;;;;;;23.19;42.68;100102.59;342352;28;1732;-70
2022/08/06 00:29:28;;;;;;;1.52;1.10;;;;;;;23.21;42.05;100096.19;343144;28;1696;-70
2022/08/06 00:29:54;;;;;;;1.95;0.90;;;;;;;23.24;42.00;100095.09;343130;28;1112;-70
2022/08/06 00:30:09;;;;;;;1.15;0.90;;;;;;;23.21;42.40;100100.66;342386;28;1786;-70
2022/08/06 00:30:33;;;;;;;2.00;1.20;;;;;;;23.09;42.05;100100.63;342377;28;1063;-70
2022/08/06 00:30:45;;;;;;;1.73;1.20;;;;;;;23.04;42.56;100097.53;342391;28;1210;-70
2022/08/06 00:31:02;;;;;;;1.40;1.13;;;;;;;23.10;42.97;100094.38;342763;28;1285;-70
2022/08/06 00:31:21;;;;;;;1.80;1.00;;;;;;;23.18;42.50;100093.78;342492;28;1775;-70
2022/08/06 00:31:33;;;;;;;2.28;1.10;;;;;;;23.19;42.18;100099.94;342917;28;1769;-70
2022/08/06 00:31:45;;;;;;;1.90;1.10;;;;;;;23.02;42.39;100091.50;342531;28;2129;-70
2022/08/06 00:31:57;;;;;;;1.80;1.10;;;;;;;23.00;42.33;100090.75;343620;28;1283;-70
2022/08/06 00:32:09;;;;;;;1.77;1.10;;;;;;;23.08;42.35;100096.31;342846;28;2048;-70
2022/08/06 00:32:23;;;;;;;1.50;1.15;;;;;;;23.12;42.45;100089.81;342791;28;1706;-70
2022/08/06 00:32:39;;;;;;;1.10;1.00;;;;;;;23.17;42.50;100097.41;342291;28;1098;-70
2022/08/06 00:32:52;;;;;;;1.83;0.98;;;;;;;23.17;43.42;100096.56;342205;28;1610;-70
2022/08/06 00:33:04;;;;;;;2.92;1.15;;;;;;;23.14;42.89;100097.66;344629;28;1280;-70
2022/08/06 00:33:17;;;;;;;3.08;1.20;;;;;;;23.17;42.85;100099.22;343989;28;1917;-71
2022/08/06 00:33:29;;;;;;;2.00;1.10;;;;;;;23.14;42.43;100100.31;342635;28;1591;-70
2022/08/06 00:34:03;;;;;;;1.27;0.90;;;;;;;23.05;42.38;100099.19;342633;28;1382;-70
2022/08/06 00:34:15;;;;;;;1.40;0.90;;;;;;;23.05;42.49;100096.53;342910;28;1803;-70
2022/08/06 00:34:28;;;;;;;1.77;1.00;;;;;;;23.10;42.74;100098.81;343188;28;1340;-70
2022/08/06 00:34:40;;;;;;;2.65;1.00;;;;;;;23.10;42.92;100101.47;343162;28;1066;-70
2022/08/06 00:34:55;;;;;;;3.30;0.93;;;;;;;23.12;42.40;100100.41;342337;28;2349;-70
2022/08/06 00:35:07;;;;;;;2.75;0.93;;;;;;;23.15;42.80;100098.50;342717;28;1706;-70
2022/08/06 00:35:20;;;;;;;1.95;1.00;;;;;;;23.17;42.45;100101.88;343180;28;1771;-70
2022/08/06 00:35:39;;;;;;;2.78;1.00;;;;;;;22.96;42.30;100105.19;342597;28;1046;-70
2022/08/06 00:35:56;;;;;;;2.78;1.10;;;;;;;22.86;42.94;100097.09;342510;28;1221;-70
2022/08/06 00:36:10;;;;;;;2.17;1.17;;;;;;;22.86;42.83;100099.75;342473;28;1074;-70
2022/08/06 00:36:24;;;;;;;2.25;1.20;;;;;;;22.89;43.10;100098.66;342525;28;1271;-71
2022/08/06 00:36:40;;;;;;;1.90;1.10;;;;;;;22.93;43.07;100102.75;342361;28;1106;-70
2022/08/06 00:36:55;;;;;;;1.95;0.95;;;;;;;22.96;43.19;100097.25;342294;28;1367;-70
2022/08/06 00:37:08;;;;;;;2.10;1.00;;;;;;;23.02;43.75;100099.44;343577;28;1652;-70
2022/08/06 00:37:32;;;;;;;2.28;1.10;;;;;;;23.01;42.82;100097.72;342480;28;1004;-70
2022/08/06 00:38:04;;;;;;;1.02;0.90;;;;;;;23.08;42.90;100098.09;343282;28;1544;-69
2022/08/06 00:38:21;;;;;;;1.77;0.93;;;;;;;23.12;43.12;100103.06;342881;28;1656;-70
2022/08/06 00:38:36;;;;;;;1.95;1.10;;;;;;;23.15;43.29;100098.50;342724;28;2437;-70
2022/08/06 00:38:48;;;;;;;1.52;1.13;;;;;;;23.18;43.30;100103.53;342398;28;1055;-70
2022/08/06 00:39:05;;;;;;;3.08;1.00;;;;;;;23.22;43.12;100097.03;342377;28;2462;-72
2022/08/06 00:39:20;;;;;;;3.45;1.10;;;;;;;23.24;43.89;100092.44;343105;28;1662;-71
2022/08/06 00:39:33;;;;;;;2.40;1.10;;;;;;;23.23;43.42;100096.91;342970;28;1649;-71
2022/08/06 00:39:46;;;;;;;1.95;1.05;;;;;;;23.23;43.28;100096.91;342051;28;1300;-70
2022/08/06 00:39:59;;;;;;;1.77;1.05;;;;;;;23.07;42.86;100094.63;341963;28;1356;-70
2022/08/06 00:40:11;;;;;;;1.65;1.13;;;;;;;22.96;42.44;100094.59;342642;28;1039;-70
2022/08/06 00:40:29;;;;;;;2.22;1.10;;;;;;;23.01;42.69;100096.88;343613;28;1597;-70
2022/08/06 00:40:43;;;;;;;2.03;1.10;;;;;;;23.00;42.89;100093.38;342947;28;1614;-70
2022/08/06 00:41:09;;;;;;;3.30;1.20;;;;;;;23.03;43.15;100098.47;342141;28;1015;-71
2022/08/06 00:41:23;;;;;;;2.17;1.10;;;;;;;22.99;42.59;100099.63;342336;28;1796;-71
2022/08/06 00:41:42;;;;;;;1.83;1.10;;;;;;;23.03;42.91;100089.69;342234;28;1229;-71
2022/08/06 00:41:58;;;;;;;1.45;1.00;;;;;;;23.07;43.19;100091.13;342194;28;1331;-71
2022/08/06 00:42:10;;;;;;;1.65;1.10;;;;;;;23.10;42.98;100097.03;342173;28;2190;-71
2022/08/06 00:42:27;;;;;;;2.80;1.08;;;;;;;23.12;42.81;100092.47;342134;28;1191;-71
2022/08/06 00:42:40;;;;;;;3.00;1.00;;;;;;;23.13;42.70;100094.13;342646;28;1055;-71
2022/08/06 00:42:55;;;;;;;1.83;0.95;;;;;;;23.18;42.86;100092.94;343728;28;1211;-72
2022/08/06 00:43:08;;;;;;;1.40;1.00;;;;;;;23.18;42.30;100087.63;343931;28;943;-71
2022/08/06 00:43:27;;;;;;;1.90;1.10;;;;;;;23.20;42.40;100093.66;343277;28;2860;-72
2022/08/06 00:43:52;;;;;;;2.20;1.00;;;;;;;23.21;41.99;100088.22;342609;28;1125;-72
2022/08/06 00:44:05;;;;;;;1.85;0.93;;;;;;;23.08;42.83;100098.97;343154;28;1491;-72
2022/08/06 00:44:18;;;;;;;1.30;1.00;;;;;;;22.96;42.66;100089.28;342401;28;1757;-71
2022/08/06 00:44:42;;;;;;;1.73;1.00;;;;;;;22.79;43.29;100090.56;342474;28;1023;-72
2022/08/06 00:45:00;;;;;;;3.40;1.20;;;;;;;22.77;43.00;100094.31;342558;28;1562;-71
2022/08/06 00:45:13;;;;;;;4.68;1.20;;;;;;;22.82;43.75;100098.31;343523;28;1268;-71
2022/08/06 00:45:36;;;;;;;1.27;1.00;;;;;;;22.89;43.10;100098.66;342248;28;1034;-71
2022/08/06 00:45:52;;;;;;;1.60;0.95;;;;;;;22.88;43.01;100097.81;342130;28;1115;-71
2022/08/06 00:46:06;;;;;;;2.25;1.00;;;;;;;22.92;42.86;100098.44;342186;28;1254;-71
2022/08/06 00:46:27;;;;;;;2.03;1.10;;;;;;;22.98;42.61;100100.63;342972;28;1842;-71
2022/08/06 00:46:40;;;;;;;2.20;1.10;;;;;;;23.00;43.54;100098.69;344085;28;1027;-71
2022/08/06 00:46:53;;;;;;;2.38;1.10;;;;;;;22.98;43.42;100103.28;343275;28;2113;-71
2022/08/06 00:47:05;;;;;;;1.60;1.00;;;;;;;22.99;42.89;100099.63;343338;28;1935;-71
2022/08/06 00:47:37;;;;;;;1.40;1.05;;;;;;;23.06;43.14;100095.59;344338;28;1761;-72
2022/08/06 00:48:09;;;;;;;3.10;1.08;;;;;;;23.05;43.63;100101.84;343998;28;1719;-71
2022/08/06 00:48:41;;;;;;;1.88;1.02;;;;;;;23.09;43.35;100095.34;343753;28;1421;-71
2022/08/06 00:49:05;;;;;;;1.80;1.10;;;;;;;23.19;42.83;100099.94;344533;28;1354;-71
2022/08/06 00:49:22;;;;;;;1.25;1.00;;;;;;;23.14;42.79;100097.66;341740;28;1897;-71
2022/08/06 00:49:54;;;;;;;3.10;1.05;;;;;;;23.08;42.43;100098.09;342510;28;1495;-70
2022/08/06 00:50:06;;;;;;;1.48;1.00;;;;;;;23.07;42.96;100102.56;342434;28;1739;-70
2022/08/06 00:50:18;;;;;;;1.50;0.93;;;;;;;23.06;42.91;100100.03;342412;28;1658;-70
2022/08/06 00:50:34;;;;;;;2.30;1.02;;;;;;;23.05;43.27;100103.66;342833;28;1194;-70
2022/08/06 00:50:46;;;;;;;2.40;1.08;;;;;;;23.02;43.06;100099.44;342412;28;1067;-70
2022/08/06 00:50:58;;;;;;;2.15;1.13;;;;;;;23.03;43.37;100093.16;342258;28;1417;-70
2022/08/06 00:51:12;;;;;;;1.38;1.02;;;;;;;22.99;42.53;100093.50;343347;28;1666;-70
2022/08/06 00:51:34;;;;;;;2.38;1.00;;;;;;;22.95;43.03;100098.19;342027;28;1336;-72
2022/08/06 00:52:03;;;;;;;1.30;1.00;;;;;;;22.91;43.33;100096.75;342362;28;1284;-71
2022/08/06 00:52:16;;;;;;;1.60;1.05;;;;;;;22.91;43.66;100099.38;342623;28;1860;-71
2022/08/06 00:52:30;;;;;;;2.38;1.10;;;;;;;22.90;43.37;100092.41;342698;28;833;-71
2022/08/06 00:52:44;;;;;;;2.10;1.00;;;;;;;22.90;43.51;100097.72;342239;28;1103;-71
2022/08/06 00:52:59;;;;;;;1.55;0.90;;;;;;;22.91;43.59;100096.75;343759;28;1184;-70
2022/08/06 00:53:12;;;;;;;2.05;1.05;;;;;;;22.94;43.26;100096.50;343791;28;1099;-70
2022/08/06 00:53:24;;;;;;;2.78;1.20;;;;;;;22.78;43.13;100101.28;343442;28;1071;-71
2022/08/06 00:53:45;;;;;;;1.63;1.15;;;;;;;22.73;43.49;100099.81;343735;28;1192;-70
2022/08/06 00:53:59;;;;;;;2.17;1.20;;;;;;;22.71;43.22;100107.06;343685;28;1339;-70
2022/08/06 00:54:12;;;;;;;2.10;1.38;;;;;;;22.78;43.90;100107.44;343815;28;1110;-70
2022/08/06 00:54:28;;;;;;;1.55;1.20;;;;;;;22.76;43.49;100097.91;343841;28;1104;-70
2022/08/06 00:54:47;;;;;;;1.40;1.00;;;;;;;22.74;43.31;100104.19;343060;28;2029;-70
2022/08/06 00:55:01;;;;;;;1.40;1.00;;;;;;;22.74;43.65;100106.84;343053;28;1388;-70
2022/08/06 00:55:13;;;;;;;2.15;1.05;;;;;;;22.80;43.83;100107.31;343776;28;1057;-70
2022/08/06 00:55:29;;;;;;;1.88;1.00;;;;;;;22.80;43.68;100107.31;342176;28;1269;-70
2022/08/06 00:55:46;;;;;;;1.05;1.00;;;;;;;22.81;43.76;100106.34;342596;28;1199;-72
2022/08/06 00:56:12;;;;;;;1.23;1.00;;;;;;;22.72;43.91;100108.75;342283;28;1182;-71
2022/08/06 00:56:24;;;;;;;2.80;1.20;;;;;;;22.55;43.93;100109.19;343169;28;1363;-71
2022/08/06 00:56:40;;;;;;;3.60;1.27;;;;;;;22.61;44.02;100106.06;343721;28;1263;-71
2022/08/06 00:56:56;;;;;;;2.05;1.08;;;;;;;22.67;44.40;100105.59;343561;28;1319;-72
2022/08/06 00:57:10;;;;;;;1.27;0.90;;;;;;;22.73;44.36;100105.13;342856;28;1054;-70
2022/08/06 00:57:23;;;;;;;1.83;1.00;;;;;;;22.73;43.92;100110.44;343731;28;1202;-70
2022/08/06 00:57:38;;;;;;;2.20;1.10;;;;;;;22.78;44.33;100106.59;343913;28;839;-70
2022/08/06 00:57:52;;;;;;;1.60;1.10;;;;;;;22.67;44.78;100110.91;343107;28;1779;-70
2022/08/06 00:58:06;;;;;;;1.77;1.08;;;;;;;22.58;44.19;100108.97;345023;28;1063;-70
2022/08/06 00:58:24;;;;;;;1.80;1.00;;;;;;;22.58;44.08;100111.59;343489;28;1838;-70
2022/08/06 00:58:38;;;;;;;1.20;1.00;;;;;;;22.63;44.18;100120.03;343222;28;1298;-70
2022/08/06 00:58:52;;;;;;;1.15;1.00;;;;;;;22.66;44.39;100111.03;344643;28;1051;-69
2022/08/06 00:59:14;;;;;;;2.10;1.00;;;;;;;22.70;43.88;100110.69;344336;28;1303;-71
2022/08/06 00:59:27;;;;;;;1.83;1.00;;;;;;;22.75;44.06;100112.97;343377;28;1067;-72
2022/08/06 00:59:46;;;;;;;2.15;1.10;;;;;;;22.80;43.56;100112.59;344330;28;1261;-72
2022/08/06 01:00:04;;;;;;;2.17;1.20;;;;;;;22.76;43.68;100114.66;343380;28;1516;-71
2022/08/06 01:00:36;;;;;;;1.38;1.00;;;;;;;22.65;44.20;100118.13;342385;28;1702;-71
2022/08/06 01:00:51;;;;;;;1.63;1.00;;;;;;;22.60;43.43;100120.28;342187;28;1598;-71
2022/08/06 01:01:03;;;;;;;2.17;1.08;;;;;;;22.57;43.93;100115.22;341796;28;1602;-71
2022/08/06 01:01:28;;;;;;;1.98;1.10;;;;;;;22.51;43.89;100118.31;342777;28;1431;-71
2022/08/06 01:01:44;;;;;;;2.10;1.10;;;;;;;22.54;44.18;100120.75;343112;28;1227;-71
2022/08/06 01:02:02;;;;;;;1.10;1.00;;;;;;;22.57;44.03;100123.16;343096;28;1613;-71
2022/08/06 01:02:21;;;;;;;1.13;1.02;;;;;;;22.64;44.46;100121.75;343391;28;1379;-71
2022/08/06 01:02:38;;;;;;;2.38;1.17;;;;;;;22.67;44.12;100121.50;343969;28;1721;-71
2022/08/06 01:02:52;;;;;;;2.53;1.17;;;;;;;22.69;45.54;100124.88;342451;28;1187;-70
2022/08/06 01:03:05;;;;;;;2.47;1.15;;;;;;;22.53;44.11;100124.34;343596;28;1767;-71
2022/08/06 01:03:17;;;;;;;3.70;1.30;;;;;;;22.46;43.94;100120.47;343576;28;1728;-71
2022/08/06 01:03:38;;;;;;;2.35;1.20;;;;;;;22.43;44.05;100129.47;343327;28;1806;-71
2022/08/06 01:03:53;;;;;;;1.60;1.00;;;;;;;22.41;44.21;100125.25;342752;28;1712;-71
2022/08/06 01:04:05;;;;;;;1.95;1.00;;;;;;;22.44;44.32;100125.06;344117;28;1047;-70
2022/08/06 01:04:19;;;;;;;2.10;1.02;;;;;;;22.47;44.66;100125.66;342229;28;2228;-70
2022/08/06 01:04:31;;;;;;;1.95;1.00;;;;;;;22.52;44.48;100127.97;343618;28;1399;-70
2022/08/06 01:04:43;;;;;;;2.55;1.00;;;;;;;22.56;44.47;100120.63;343530;28;2153;-69
2022/08/06 01:04:56;;;;;;;2.65;0.95;;;;;;;22.62;44.41;100128.97;342863;28;1680;-70
2022/08/06 01:05:18;;;;;;;1.63;1.00;;;;;;;22.67;44.41;100131.25;343308;28;1800;-70
2022/08/06 01:05:51;;;;;;;1.35;1.10;;;;;;;22.65;43.98;100127.88;343489;28;1503;-71
2022/08/06 01:06:23;;;;;;;1.55;1.10;;;;;;;22.56;44.31;100126.78;344133;28;1623;-70
2022/08/06 01:06:56;;;;;;;1.95;1.20;;;;;;;22.58;43.97;100127.50;343756;28;1577;-70
2022/08/06 01:07:09;;;;;;;2.20;1.10;;;;;;;22.64;43.73;100127.03;343933;28;895;-70
2022/08/06 01:07:23;;;;;;;1.92;1.00;;;;;;;22.67;43.96;100126.78;344042;28;1006;-70
2022/08/06 01:07:55;;;;;;;1.30;1.10;;;;;;;22.70;44.04;100126.56;343550;28;1417;-70
2022/08/06 01:08:11;;;;;;;1.42;1.05;;;;;;;22.59;44.39;100133.63;342228;28;1175;-71
2022/08/06 01:08:24;;;;;;;1.35;1.00;;;;;;;22.50;44.51;100124.59;341981;28;1971;-72
2022/08/06 01:08:36;;;;;;;1.65;1.08;;;;;;;22.51;44.47;100126.25;342533;28;1621;-71
2022/08/06 01:08:52;;;;;;;1.90;1.20;;;;;;;22.50;44.49;100124.59;342130;28;1104;-71
2022/08/06 01:09:05;;;;;;;1.90;1.17;;;;;;;22.54;44.35;100126.06;342020;28;1346;-71
2022/08/06 01:09:18;;;;;;;1.90;1.10;;;;;;;22.57;44.71;100133.75;341875;28;1220;-71
2022/08/06 01:09:32;;;;;;;2.67;1.08;;;;;;;22.58;44.81;100132.81;342145;28;1816;-71
2022/08/06 01:09:57;;;;;;;3.08;1.00;;;;;;;22.44;44.62;100125.06;342310;28;1264;-71
2022/08/06 01:10:09;;;;;;;2.83;0.98;;;;;;;22.41;44.54;100135.84;343666;28;1066;-71
2022/08/06 01:10:25;;;;;;;2.42;1.10;;;;;;;22.48;44.46;100127.34;342629;28;1780;-71
2022/08/06 01:10:52;;;;;;;2.15;1.20;;;;;;;22.49;44.85;100133.47;343576;28;1667;-71
2022/08/06 01:11:05;;;;;;;1.77;1.13;;;;;;;22.53;44.28;100130.47;343432;28;1722;-71
2022/08/06 01:11:17;;;;;;;3.15;1.02;;;;;;;22.57;44.10;100130.25;343272;28;1918;-71
2022/08/06 01:11:29;;;;;;;3.47;1.00;;;;;;;22.60;43.92;100136.19;344268;28;1478;-71
2022/08/06 01:11:45;;;;;;;2.70;1.00;;;;;;;22.62;44.01;100128.97;343752;28;1138;-72
2022/08/06 01:11:59;;;;;;;3.08;1.00;;;;;;;22.43;44.83;100131.28;344135;28;1311;-72
2022/08/06 01:12:16;;;;;;;2.70;1.00;;;;;;;22.46;44.54;100133.72;343200;28;1489;-71
2022/08/06 01:12:28;;;;;;;2.28;1.00;;;;;;;22.48;45.29;100131.81;342404;28;1047;-71
2022/08/06 01:12:46;;;;;;;1.63;1.00;;;;;;;22.53;44.58;100129.63;342492;28;1686;-71
2022/08/06 01:12:58;;;;;;;2.28;1.10;;;;;;;22.57;44.58;100127.63;342342;28;1356;-71
2022/08/06 01:13:10;;;;;;;2.63;1.20;;;;;;;22.60;44.93;100130.06;343044;28;1792;-71
2022/08/06 01:13:36;;;;;;;1.65;1.10;;;;;;;22.61;44.53;100129.91;343619;28;1262;-70
2022/08/06 01:14:08;;;;;;;2.28;1.10;;;;;;;22.54;44.63;100132.19;342297;28;1592;-70
2022/08/06 01:14:21;;;;;;;2.65;1.10;;;;;;;22.57;44.74;100131.09;342204;28;1879;-70
2022/08/06 01:14:50;;;;;;;1.45;1.10;;;;;;;22.62;44.95;100123.66;341932;28;1621;-70
2022/08/06 01:15:15;;;;;;;1.55;1.20;;;;;;;22.68;44.25;100133.78;342920;28;1833;-70
2022/08/06 01:15:42;;;;;;;1.48;1.00;;;;;;;22.64;44.19;100127.03;342218;28;1128;-70
2022/08/06 01:16:20;;;;;;;2.35;1.20;;;;;;;22.64;45.07;100123.56;342369;28;1519;-70
2022/08/06 01:16:49;;;;;;;1.77;1.15;;;;;;;22.69;44.84;100130.19;342405;28;1064;-70
2022/08/06 01:17:07;;;;;;;1.70;1.00;;;;;;;22.70;44.71;100131.88;343708;28;1289;-70
2022/08/06 01:17:42;;;;;;;1.98;1.00;;;;;;;22.70;45.01;100131.88;342850;28;1426;-70
2022/08/06 01:17:57;;;;;;;1.38;1.10;;;;;;;22.75;44.78;100131.53;342261;28;1322;-69
2022/08/06 01:18:18;;;;;;;2.38;1.20;;;;;;;22.72;44.34;100129.97;342628;28;1693;-70
2022/08/06 01:18:44;;;;;;;2.63;1.17;;;;;;;22.68;44.24;100132.97;342430;28;2644;-70
2022/08/06 01:19:24;;;;;;;1.85;1.30;;;;;;;22.57;44.33;100128.44;342320;28;1805;-70
2022/08/06 01:20:16;;;;;;;1.73;1.00;;;;;;;22.64;44.80;100129.69;342424;28;1355;-70
2022/08/06 01:21:06;;;;;;;1.13;1.00;;;;;;;22.65;44.77;100127.88;343377;28;1358;-71
2022/08/06 01:21:56;;;;;;;1.52;1.10;;;;;;;22.62;44.42;100131.63;342446;28;1520;-71
2022/08/06 01:22:37;;;;;;;2.78;1.15;;;;;;;22.54;44.76;100137.47;343463;28;1338;-70
2022/08/06 01:23:05;;;;;;;2.65;1.20;;;;;;;22.56;44.91;100129.44;343531;28;1078;-71
2022/08/06 01:23:46;;;;;;;2.45;1.20;;;;;;;22.67;44.63;100132.09;342158;28;1400;-70
2022/08/06 01:24:23;;;;;;;3.03;1.20;;;;;;;22.63;44.77;100127.16;340853;28;1286;-70
2022/08/06 01:24:50;;;;;;;1.70;1.00;;;;;;;22.67;45.03;100129.44;343112;28;1145;-71